createdAt,value
2022-11-05T00:02:06.327Z,19.25
2022-11-05T00:04:32.675Z,20.58
2022-11-05T00:07:07.121Z,19.80
2022-11-05T00:09:34.214Z,19.20
2022-11-05T00:12:09.640Z,20.13
2022-11-05T00:14:35.987Z,21.52
2022-11-05T00:17:02.342Z,18.88
2022-11-05T00:19:28.647Z,19.30
2022-11-05T00:21:54.964Z,17.40
2022-11-05T00:24:24.383Z,18.77
2022-11-05T00:26:50.787Z,18.00
2022-11-05T00:29:17.081Z,17.20
2022-11-05T00:31:43.391Z,15.68
2022-11-05T00:34:09.709Z,15.75
2022-11-05T00:36:36.019Z,17.63
2022-11-05T00:39:02.336Z,17.55
2022-11-05T00:41:28.639Z,17.67
2022-11-05T00:43:54.964Z,18.60
2022-11-05T00:46:21.317Z,19.30
2022-11-05T00:48:47.635Z,17.60
2022-11-05T00:51:13.970Z,20.13
2022-11-05T00:53:40.285Z,19.20
2022-11-05T00:56:06.873Z,18.20
2022-11-05T00:58:33.289Z,17.70
2022-11-05T01:01:00.831Z,18.70
2022-11-05T01:03:36.205Z,18.45
2022-11-05T01:06:16.297Z,16.73
2022-11-05T01:08:44.216Z,19.33
2022-11-05T01:11:13.954Z,18.33
2022-11-05T01:13:40.552Z,17.65
2022-11-05T01:16:10.037Z,18.15
2022-11-05T01:18:37.949Z,18.38
2022-11-05T01:21:12.468Z,16.95
2022-11-05T01:23:38.807Z,17.95
2022-11-05T01:26:05.294Z,17.05
2022-11-05T01:28:31.852Z,18.65
2022-11-05T01:30:58.250Z,19.10
2022-11-05T01:33:24.732Z,19.27
2022-11-05T01:35:51.116Z,19.50
2022-11-05T01:38:18.360Z,19.27
2022-11-05T01:40:45.300Z,17.25
2022-11-05T01:43:17.991Z,19.23
2022-11-05T01:45:47.722Z,17.92
2022-11-05T01:48:21.468Z,16.95
2022-11-05T01:50:56.190Z,16.88
2022-11-05T01:53:47.196Z,17.90
2022-11-05T01:56:22.124Z,17.50
2022-11-05T02:01:28.810Z,17.90
2022-11-05T02:03:59.791Z,18.35
2022-11-05T02:06:28.681Z,18.23
2022-11-05T02:09:08.863Z,16.60
2022-11-05T02:11:35.193Z,17.10
2022-11-05T02:14:01.604Z,16.55
2022-11-05T02:16:45.959Z,16.17
2022-11-05T02:19:34.017Z,15.43
2022-11-05T02:22:06.349Z,15.07
2022-11-05T02:25:05.506Z,16.50
2022-11-05T02:27:43.888Z,16.55
2022-11-05T02:30:31.911Z,16.42
2022-11-05T02:33:18.483Z,14.02
2022-11-05T02:35:49.368Z,15.02
2022-11-05T02:38:50.218Z,16.02
2022-11-05T02:41:25.312Z,17.48
2022-11-05T02:43:58.871Z,18.00
2022-11-05T02:46:42.433Z,16.80
2022-11-05T02:49:38.965Z,16.50
2022-11-05T02:52:12.810Z,16.10
2022-11-05T02:55:14.570Z,17.45
2022-11-05T02:57:46.259Z,17.33
2022-11-05T03:00:48.898Z,15.52
2022-11-05T03:03:45.452Z,14.32
2022-11-05T03:06:23.752Z,16.48
2022-11-05T03:09:14.875Z,14.60
2022-11-05T03:11:47.915Z,14.68
2022-11-05T03:14:36.613Z,15.00
2022-11-05T03:17:17.449Z,15.48
2022-11-05T03:19:53.580Z,14.23
2022-11-05T03:22:34.512Z,13.82
2022-11-05T03:25:08.073Z,14.10
2022-11-05T03:27:39.672Z,12.27
2022-11-05T03:30:09.185Z,12.32
2022-11-05T03:32:40.020Z,12.60
2022-11-05T03:35:14.522Z,13.90
2022-11-05T03:37:44.451Z,14.02
2022-11-05T03:40:14.002Z,13.88
2022-11-05T03:42:46.075Z,12.95
2022-11-05T03:45:18.796Z,14.35
2022-11-05T03:47:49.805Z,14.00
2022-11-05T03:50:35.884Z,12.95
2022-11-05T03:53:29.164Z,12.77
2022-11-05T03:56:03.665Z,12.98
2022-11-05T03:58:30.832Z,12.18
2022-11-05T04:01:00.869Z,13.80
2022-11-05T04:03:27.163Z,15.90
2022-11-05T04:05:55.865Z,15.35
2022-11-05T04:08:22.169Z,19.67
2022-11-05T04:10:48.481Z,16.85
2022-11-05T04:13:14.786Z,17.90
2022-11-05T04:15:41.136Z,19.48
2022-11-05T04:18:07.452Z,18.08
2022-11-05T04:20:33.747Z,18.00
2022-11-05T04:23:04.688Z,17.58
2022-11-05T04:25:30.984Z,20.60
2022-11-05T04:28:00.436Z,19.35
2022-11-05T04:30:26.812Z,22.08
2022-11-05T04:33:06.547Z,22.00
2022-11-05T04:35:44.805Z,22.00
2022-11-05T04:38:16.786Z,19.83
2022-11-05T04:40:44.413Z,22.10
2022-11-05T04:43:16.376Z,21.27
2022-11-05T04:45:43.310Z,19.45
2022-11-05T04:48:10.517Z,22.35
2022-11-05T04:50:37.159Z,21.25
2022-11-05T04:53:03.464Z,23.58
2022-11-05T04:55:29.810Z,23.67
2022-11-05T04:57:56.155Z,21.23
2022-11-05T05:00:23.719Z,24.38
2022-11-05T05:02:50.267Z,23.05
2022-11-05T05:05:16.726Z,23.17
2022-11-05T05:07:43.076Z,22.23
2022-11-05T05:10:10.678Z,24.35
2022-11-05T05:12:37.032Z,24.33
2022-11-05T05:15:04.359Z,23.45
2022-11-05T05:17:30.680Z,24.92
2022-11-05T05:19:57.007Z,26.17
2022-11-05T05:22:23.327Z,25.70
2022-11-05T05:24:52.755Z,24.60
2022-11-05T05:27:19.529Z,24.77
2022-11-05T05:29:45.836Z,28.92
2022-11-05T05:32:12.141Z,28.52
2022-11-05T05:34:38.435Z,26.02
2022-11-05T05:37:04.756Z,26.58
2022-11-05T05:39:31.093Z,25.40
2022-11-05T05:41:57.471Z,26.77
2022-11-05T05:44:23.987Z,28.00
2022-11-05T05:46:50.297Z,28.73
2022-11-05T05:49:16.604Z,28.50
2022-11-05T05:51:42.953Z,27.52
2022-11-05T05:54:10.831Z,30.25
2022-11-05T05:56:37.151Z,28.35
2022-11-05T05:59:05.351Z,27.45
2022-11-05T06:01:31.882Z,28.65
2022-11-05T06:03:58.319Z,29.33
2022-11-05T06:06:24.622Z,31.00
2022-11-05T06:08:50.923Z,29.88
2022-11-05T06:11:17.266Z,29.70
2022-11-05T06:13:43.664Z,31.33
2022-11-05T06:16:10.313Z,30.75
2022-11-05T06:18:37.381Z,31.58
2022-11-05T06:21:05.710Z,31.20
2022-11-05T06:23:32.866Z,28.80
2022-11-05T06:26:00.973Z,30.23
2022-11-05T06:28:27.338Z,34.40
2022-11-05T06:30:53.640Z,33.38
2022-11-05T06:33:19.980Z,31.45
2022-11-05T06:35:46.385Z,31.73
2022-11-05T06:38:12.740Z,29.98
2022-11-05T06:40:39.270Z,31.95
2022-11-05T06:43:05.565Z,32.25
2022-11-05T06:45:31.910Z,29.67
2022-11-05T06:47:58.998Z,32.38
2022-11-05T06:50:26.820Z,29.77
2022-11-05T06:53:00.650Z,27.15
2022-11-05T06:55:28.895Z,26.45
2022-11-05T06:57:56.385Z,29.40
2022-11-05T07:00:23.292Z,27.92
2022-11-05T07:02:50.109Z,29.75
2022-11-05T07:05:16.874Z,29.52
2022-11-05T07:07:45.157Z,29.05
2022-11-05T07:10:14.798Z,28.90
2022-11-05T07:12:41.141Z,30.77
2022-11-05T07:15:10.700Z,27.95
2022-11-05T07:17:37.218Z,28.58
2022-11-05T07:20:05.503Z,27.15
2022-11-05T07:22:33.155Z,31.15
2022-11-05T07:24:59.581Z,28.15
2022-11-05T07:27:25.922Z,28.73
2022-11-05T07:29:52.286Z,27.13
2022-11-05T07:32:18.691Z,28.52
2022-11-05T07:34:45.034Z,29.17
2022-11-05T07:37:11.329Z,32.47
2022-11-05T07:39:37.677Z,30.55
2022-11-05T07:42:04.099Z,31.63
2022-11-05T07:44:30.628Z,32.60
2022-11-05T07:46:56.959Z,30.90
2022-11-05T07:49:23.269Z,30.38
2022-11-05T07:51:49.556Z,31.20
2022-11-05T07:54:15.881Z,28.15
2022-11-05T07:56:42.181Z,29.23
2022-11-05T07:59:08.621Z,29.15
2022-11-05T08:01:35.110Z,27.38
2022-11-05T08:04:01.536Z,28.27
2022-11-05T08:06:27.862Z,28.05
2022-11-05T08:08:54.211Z,26.83
2022-11-05T08:11:20.524Z,27.45
2022-11-05T08:13:46.843Z,25.30
2022-11-05T08:16:13.177Z,24.83
2022-11-05T08:18:39.488Z,24.25
2022-11-05T08:21:06.121Z,23.10
2022-11-05T08:23:32.708Z,24.08
2022-11-05T08:26:01.956Z,24.75
2022-11-05T08:28:28.310Z,24.15
2022-11-05T08:30:56.507Z,23.92
2022-11-05T08:33:24.688Z,24.05
2022-11-05T08:35:51.270Z,25.30
2022-11-05T08:38:19.485Z,25.45
2022-11-05T08:40:54.332Z,25.38
2022-11-05T08:45:47.164Z,27.88
2022-11-05T08:48:15.854Z,29.85
2022-11-05T08:50:43.184Z,32.05
2022-11-05T08:53:11.325Z,33.00
2022-11-05T08:55:38.178Z,34.65
2022-11-05T08:58:06.705Z,35.15
2022-11-05T09:00:35.604Z,38.35
2022-11-05T09:03:03.979Z,38.83
2022-11-05T09:05:31.779Z,40.92
2022-11-05T09:08:01.318Z,40.97
2022-11-05T09:10:28.193Z,40.03
2022-11-05T09:12:54.624Z,41.92
2022-11-05T09:15:20.924Z,42.35
2022-11-05T09:17:47.252Z,39.53
2022-11-05T09:20:13.637Z,44.60
2022-11-05T09:22:43.253Z,46.13
2022-11-05T09:25:10.124Z,43.53
2022-11-05T09:27:36.455Z,48.97
2022-11-05T09:30:03.742Z,48.53
2022-11-05T09:32:33.265Z,47.53
2022-11-05T09:34:59.583Z,46.78
2022-11-05T09:37:26.083Z,47.88
2022-11-05T09:39:52.814Z,45.17
2022-11-05T09:42:20.665Z,43.72
2022-11-05T09:44:52.167Z,43.60
2022-11-05T09:47:30.671Z,43.58
2022-11-05T09:50:00.835Z,41.70
2022-11-05T09:52:30.399Z,40.28
2022-11-05T09:54:57.352Z,42.22
2022-11-05T09:57:29.394Z,37.22
2022-11-05T09:59:59.127Z,40.00
2022-11-05T10:02:30.440Z,40.45
2022-11-05T10:05:10.356Z,39.10
2022-11-05T10:07:53.998Z,37.63
2022-11-05T10:10:43.274Z,37.08
2022-11-05T10:13:32.826Z,38.58
2022-11-05T10:16:13.373Z,35.55
2022-11-05T10:18:42.722Z,36.22
2022-11-05T10:21:17.093Z,35.33
2022-11-05T10:23:47.922Z,32.58
2022-11-05T10:26:19.194Z,33.20
2022-11-05T10:28:45.989Z,30.70
2022-11-05T10:31:16.004Z,29.33
2022-11-05T10:33:48.557Z,31.05
2022-11-05T10:36:24.996Z,29.02
2022-11-05T10:38:52.950Z,27.92
2022-11-05T10:41:39.306Z,26.77
2022-11-05T10:44:18.920Z,29.02
2022-11-05T10:47:29.329Z,25.35
2022-11-05T10:50:01.514Z,25.05
2022-11-05T10:52:35.993Z,24.90
2022-11-05T10:55:41.206Z,23.90
2022-11-05T10:58:29.241Z,20.77
2022-11-05T11:00:55.552Z,18.33
2022-11-05T11:03:49.890Z,17.85
2022-11-05T11:06:16.141Z,17.65
2022-11-05T11:08:46.075Z,15.43
2022-11-05T11:11:26.230Z,14.52
2022-11-05T11:14:00.146Z,13.27
2022-11-05T11:16:29.162Z,14.23
2022-11-05T11:19:00.222Z,13.40
2022-11-05T11:21:28.657Z,13.35
2022-11-05T11:24:03.883Z,12.93
2022-11-05T11:26:37.288Z,12.02
2022-11-05T11:29:15.473Z,12.05
2022-11-05T11:31:42.076Z,10.77
2022-11-05T11:34:15.209Z,10.95
2022-11-05T11:36:50.814Z,10.48
2022-11-05T11:39:21.959Z,9.88
2022-11-05T11:41:54.764Z,9.57
2022-11-05T11:44:24.721Z,9.75
2022-11-05T11:46:53.313Z,9.50
2022-11-05T11:49:37.956Z,8.15
2022-11-05T11:52:11.065Z,7.65
2022-11-05T11:54:37.418Z,7.88
2022-11-05T11:57:20.936Z,7.93
2022-11-05T12:00:07.814Z,8.20
2022-11-05T12:03:01.599Z,7.97
2022-11-05T12:06:02.385Z,6.95
2022-11-05T12:09:00.600Z,7.15
2022-11-05T12:11:42.979Z,6.75
2022-11-05T12:14:21.625Z,6.40
2022-11-05T12:16:58.218Z,6.13
2022-11-05T12:19:42.329Z,7.00
2022-11-05T12:22:30.262Z,7.95
2022-11-05T12:25:13.497Z,7.80
2022-11-05T12:27:58.191Z,8.90
2022-11-05T12:30:24.625Z,7.85
2022-11-05T12:33:05.932Z,7.57
2022-11-05T12:35:45.759Z,7.10
2022-11-05T12:38:37.150Z,14.43
2022-11-05T12:41:14.235Z,7.10
2022-11-05T12:44:00.997Z,22.63
2022-11-05T12:46:37.572Z,8.95
2022-11-05T12:49:25.409Z,31.67
2022-11-05T12:52:03.736Z,11.48
2022-11-05T12:54:53.083Z,6.20
2022-11-05T12:57:21.163Z,8.23
2022-11-05T13:00:01.477Z,6.13
2022-11-05T13:02:41.666Z,5.72
2022-11-05T13:05:34.461Z,5.85
2022-11-05T13:08:08.156Z,5.47
2022-11-05T13:10:40.822Z,7.15
2022-11-05T13:13:22.980Z,5.70
2022-11-05T13:15:57.205Z,12.13
2022-11-05T13:18:34.875Z,5.78
2022-11-05T13:21:05.253Z,6.10
2022-11-05T13:23:35.227Z,5.78
2022-11-05T13:26:20.084Z,6.75
2022-11-05T13:29:08.351Z,5.85
2022-11-05T13:31:45.420Z,6.00
2022-11-05T13:34:13.004Z,5.82
2022-11-05T13:37:05.229Z,5.93
2022-11-05T13:39:36.949Z,6.40
2022-11-05T13:42:21.956Z,5.80
2022-11-05T13:44:57.045Z,6.05
2022-11-05T13:47:47.132Z,5.82
2022-11-05T13:50:56.306Z,6.60
2022-11-05T13:53:42.748Z,5.53
2022-11-05T13:56:37.155Z,4.82
2022-11-05T13:59:22.390Z,4.63
2022-11-05T14:04:32.531Z,5.47
2022-11-05T14:07:12.782Z,4.75
2022-11-05T14:09:40.526Z,5.03
2022-11-05T14:12:19.453Z,5.20
2022-11-05T14:14:48.542Z,5.53
2022-11-05T14:17:25.945Z,4.78
2022-11-05T14:20:04.421Z,6.43
2022-11-05T14:22:33.717Z,5.68
2022-11-05T14:25:01.480Z,5.30
2022-11-05T14:27:36.966Z,5.30
2022-11-05T14:30:40.930Z,5.13
2022-11-05T14:33:37.245Z,5.30
2022-11-05T14:36:21.645Z,5.00
2022-11-05T14:38:53.968Z,5.13
2022-11-05T14:41:21.321Z,6.00
2022-11-05T14:44:06.311Z,5.20
2022-11-05T14:46:45.102Z,4.82
2022-11-05T14:49:27.778Z,5.25
2022-11-05T14:51:57.590Z,4.43
2022-11-05T14:54:36.667Z,4.57
2022-11-05T14:57:03.773Z,4.95
2022-11-05T14:59:30.053Z,4.80
2022-11-05T15:02:13.135Z,4.95
2022-11-05T15:04:39.690Z,5.45
2022-11-05T15:07:05.959Z,4.90
2022-11-05T15:09:41.180Z,5.35
2022-11-05T15:12:16.597Z,7.28
2022-11-05T15:14:57.600Z,5.28
2022-11-05T15:18:05.609Z,5.53
2022-11-05T15:20:47.823Z,5.10
2022-11-05T15:23:20.829Z,5.18
2022-11-05T15:26:10.948Z,4.93
2022-11-05T15:28:42.068Z,5.50
2022-11-05T15:31:14.503Z,5.00
2022-11-05T15:33:42.729Z,5.25
2022-11-05T15:36:30.445Z,6.32
2022-11-05T15:39:27.364Z,5.53
2022-11-05T15:41:44.605Z,6.60
2022-11-05T15:44:28.224Z,5.63
2022-11-05T15:47:16.722Z,6.72
2022-11-05T15:49:49.175Z,5.97
2022-11-05T15:52:18.002Z,6.43
2022-11-05T15:54:44.910Z,6.22
2022-11-05T15:57:40.274Z,5.30
2022-11-05T16:02:41.488Z,5.75
2022-11-05T16:05:13.435Z,6.10
2022-11-05T16:07:45.135Z,5.28
2022-11-05T16:10:28.653Z,5.82
2022-11-05T16:12:55.364Z,5.93
2022-11-05T16:15:25.732Z,6.00
2022-11-05T16:17:55.216Z,6.30
2022-11-05T16:20:34.142Z,5.78
2022-11-05T16:23:06.233Z,6.05
2022-11-05T16:25:43.500Z,5.07
2022-11-05T16:28:24.801Z,5.60
2022-11-05T16:31:02.518Z,5.40
2022-11-05T16:33:34.998Z,5.63
2022-11-05T16:36:01.357Z,6.15
2022-11-05T16:38:27.728Z,5.63
2022-11-05T16:40:54.048Z,5.93
2022-11-05T16:43:22.891Z,6.30
2022-11-05T16:45:49.695Z,6.00
2022-11-05T16:48:16.574Z,6.00
2022-11-05T16:50:43.165Z,5.63
2022-11-05T16:53:09.734Z,5.88
2022-11-05T16:55:38.722Z,6.30
2022-11-05T16:58:07.233Z,5.53
2022-11-05T17:00:33.672Z,6.18
2022-11-05T17:02:59.993Z,5.95
2022-11-05T17:05:29.852Z,6.10
2022-11-05T17:07:56.717Z,5.93
2022-11-05T17:10:24.846Z,6.13
2022-11-05T17:12:51.640Z,6.10
2022-11-05T17:15:29.355Z,5.53
2022-11-05T17:17:56.754Z,6.10
2022-11-05T17:20:29.025Z,6.28
2022-11-05T17:22:56.568Z,5.95
2022-11-05T17:25:23.573Z,6.30
2022-11-05T17:27:50.167Z,5.45
2022-11-05T17:30:17.260Z,6.10
2022-11-05T17:32:43.737Z,6.00
2022-11-05T17:35:10.685Z,7.50
2022-11-05T17:37:37.116Z,6.05
2022-11-05T17:40:05.802Z,5.60
2022-11-05T17:42:32.392Z,5.30
2022-11-05T17:44:59.183Z,5.40
2022-11-05T17:47:28.348Z,5.60
2022-11-05T17:49:54.821Z,6.40
2022-11-05T17:52:21.248Z,5.15
2022-11-05T17:54:47.559Z,5.30
2022-11-05T17:57:13.856Z,5.07
2022-11-05T17:59:40.187Z,4.93
2022-11-05T18:02:06.577Z,4.90
2022-11-05T18:04:32.993Z,4.90
2022-11-05T18:06:59.310Z,4.60
2022-11-05T18:09:25.704Z,4.57
2022-11-05T18:11:52.000Z,4.22
2022-11-05T18:14:23.701Z,4.63
2022-11-05T18:16:51.164Z,4.38
2022-11-05T18:19:17.606Z,4.80
2022-11-05T18:21:43.996Z,4.68
2022-11-05T18:24:10.653Z,4.22
2022-11-05T18:26:36.991Z,5.07
2022-11-05T18:29:05.539Z,4.82
2022-11-05T18:31:32.036Z,4.47
2022-11-05T18:33:59.997Z,4.32
2022-11-05T18:36:28.845Z,4.65
2022-11-05T18:38:57.280Z,4.18
2022-11-05T18:41:24.034Z,4.15
2022-11-05T18:43:50.369Z,3.80
2022-11-05T18:46:43.267Z,3.65
2022-11-05T18:49:03.861Z,3.63
2022-11-05T18:51:30.188Z,3.30
2022-11-05T18:53:56.479Z,3.60
2022-11-05T18:56:23.307Z,3.40
2022-11-05T18:58:50.583Z,3.63
2022-11-05T19:01:20.651Z,3.92
2022-11-05T19:03:47.852Z,3.63
2022-11-05T19:06:14.228Z,3.58
2022-11-05T19:08:41.235Z,3.55
2022-11-05T19:11:20.036Z,3.65
2022-11-05T19:13:46.466Z,3.95
2022-11-05T19:16:19.304Z,4.13
2022-11-05T19:18:45.846Z,3.67
2022-11-05T19:21:15.036Z,4.32
2022-11-05T19:23:41.494Z,3.97
2022-11-05T19:26:09.989Z,4.10
2022-11-05T19:28:36.739Z,4.65
2022-11-05T19:31:03.972Z,4.55
2022-11-05T19:33:30.459Z,4.32
2022-11-05T19:35:57.131Z,4.07
2022-11-05T19:38:24.384Z,4.25
2022-11-05T19:40:50.764Z,4.20
2022-11-05T19:43:17.264Z,4.20
2022-11-05T19:45:45.043Z,3.72
2022-11-05T19:48:17.856Z,4.22
2022-11-05T19:50:45.679Z,4.30
2022-11-05T19:53:12.116Z,4.00
2022-11-05T19:55:40.286Z,3.95
2022-11-05T19:58:06.928Z,3.95
2022-11-05T20:00:33.607Z,4.10
2022-11-05T20:03:00.097Z,3.67
2022-11-05T20:05:26.836Z,3.95
2022-11-05T20:07:53.440Z,4.55
2022-11-05T20:10:19.966Z,5.15
2022-11-05T20:12:46.350Z,3.95
2022-11-05T20:15:12.756Z,4.05
2022-11-05T20:17:39.177Z,3.90
2022-11-05T20:20:07.188Z,3.97
2022-11-05T20:22:33.706Z,4.22
2022-11-05T20:25:00.045Z,3.70
2022-11-05T20:27:26.424Z,4.47
2022-11-05T20:29:52.785Z,4.57
2022-11-05T20:32:19.157Z,4.07
2022-11-05T20:34:45.599Z,4.00
2022-11-05T20:37:11.993Z,3.95
2022-11-05T20:39:38.428Z,4.35
2022-11-05T20:42:04.975Z,4.22
2022-11-05T20:44:31.411Z,3.88
2022-11-05T20:46:57.816Z,5.00
2022-11-05T20:49:25.574Z,4.20
2022-11-05T20:51:52.471Z,3.95
2022-11-05T20:54:18.874Z,4.30
2022-11-05T20:56:45.264Z,4.50
2022-11-05T20:59:11.650Z,4.40
2022-11-05T21:01:38.142Z,4.55
2022-11-05T21:04:04.732Z,4.68
2022-11-05T21:06:31.903Z,4.30
2022-11-05T21:08:58.333Z,4.45
2022-11-05T21:11:24.822Z,4.53
2022-11-05T21:13:51.246Z,4.60
2022-11-05T21:16:22.106Z,4.32
2022-11-05T21:18:48.497Z,5.30
2022-11-05T21:21:18.475Z,5.70
2022-11-05T21:23:44.933Z,4.95
2022-11-05T21:26:13.178Z,4.88
2022-11-05T21:28:40.635Z,5.13
2022-11-05T21:31:07.532Z,5.00
2022-11-05T21:33:34.617Z,5.30
2022-11-05T21:36:07.404Z,5.10
2022-11-05T21:38:33.828Z,4.80
2022-11-05T21:41:01.147Z,5.35
2022-11-05T21:43:27.524Z,4.88
2022-11-05T21:45:53.894Z,5.50
2022-11-05T21:48:20.262Z,5.13
2022-11-05T21:50:51.346Z,5.40
2022-11-05T21:53:18.165Z,5.50
2022-11-05T21:55:44.527Z,5.30
2022-11-05T21:58:16.202Z,5.47
2022-11-05T22:00:42.585Z,6.15
2022-11-05T22:03:08.932Z,5.82
2022-11-05T22:05:35.498Z,5.63
2022-11-05T22:08:01.911Z,5.35
2022-11-05T22:10:28.296Z,5.45
2022-11-05T22:12:54.740Z,6.45
2022-11-05T22:15:21.121Z,5.70
2022-11-05T22:17:50.356Z,5.85
2022-11-05T22:20:16.821Z,6.28
2022-11-05T22:22:43.623Z,5.93
2022-11-05T22:25:09.995Z,6.43
2022-11-05T22:27:36.377Z,6.20
2022-11-05T22:30:02.925Z,5.65
2022-11-05T22:32:29.308Z,5.60
2022-11-05T22:34:55.691Z,5.63
2022-11-05T22:37:22.092Z,6.10
2022-11-05T22:39:48.601Z,6.20
2022-11-05T22:42:15.045Z,5.70
2022-11-05T22:44:41.691Z,6.45
2022-11-05T22:47:08.135Z,5.80
2022-11-05T22:49:34.726Z,5.45
2022-11-05T22:52:01.242Z,6.22
2022-11-05T22:54:27.763Z,7.05
2022-11-05T22:56:54.161Z,6.03
2022-11-05T22:59:20.545Z,6.30
2022-11-05T23:01:47.653Z,6.82
2022-11-05T23:04:15.067Z,6.75
2022-11-05T23:06:42.106Z,6.47
2022-11-05T23:09:24.333Z,6.50
2022-11-05T23:11:52.799Z,6.45
2022-11-05T23:14:19.824Z,6.90
2022-11-05T23:16:46.204Z,6.30
2022-11-05T23:19:12.929Z,6.70
2022-11-05T23:21:39.307Z,5.72
2022-11-05T23:24:06.085Z,5.97
2022-11-05T23:26:34.149Z,6.93
2022-11-05T23:29:00.513Z,6.53
2022-11-05T23:31:26.885Z,6.40
2022-11-05T23:33:53.247Z,6.18
2022-11-05T23:36:19.603Z,6.70
2022-11-05T23:38:46.001Z,6.28
2022-11-05T23:41:12.357Z,6.60
2022-11-05T23:43:38.750Z,6.78
2022-11-05T23:46:05.245Z,6.90
2022-11-05T23:48:33.210Z,6.45
2022-11-05T23:51:02.591Z,6.15
2022-11-05T23:53:30.521Z,5.80
2022-11-05T23:56:14.623Z,6.13
2022-11-05T23:58:42.104Z,6.70
